createdAt,value
2022-12-19T00:01:40.572Z,98101.50
2022-12-19T00:03:44.514Z,98097.31
2022-12-19T00:05:47.106Z,98094.81
2022-12-19T00:07:49.737Z,98102.69
2022-12-19T00:09:52.394Z,98096.88
2022-12-19T00:11:55.307Z,98103.72
2022-12-19T00:13:59.996Z,98106.97
2022-12-19T00:16:03.937Z,98108.81
2022-12-19T00:18:06.712Z,98116.66
2022-12-19T00:20:10.294Z,98116.25
2022-12-19T00:22:14.391Z,98122.22
2022-12-19T00:24:21.650Z,98111.50
2022-12-19T00:26:26.453Z,98112.06
2022-12-19T00:28:29.032Z,98115.44
2022-12-19T00:30:33.221Z,98104.34
2022-12-19T00:32:36.311Z,98112.28
2022-12-19T00:34:38.905Z,98104.06
2022-12-19T00:36:41.561Z,98109.00
2022-12-19T00:38:44.367Z,98106.25
2022-12-19T00:40:46.961Z,98082.34
2022-12-19T00:42:53.547Z,98095.88
2022-12-19T00:44:56.427Z,98086.59
2022-12-19T00:47:00.402Z,98096.00
2022-12-19T00:49:03.964Z,98079.84
2022-12-19T00:51:08.788Z,98085.75
2022-12-19T00:53:11.413Z,98064.44
2022-12-19T00:55:18.783Z,98078.91
2022-12-19T00:57:22.063Z,98087.41
2022-12-19T00:59:26.915Z,98084.03
2022-12-19T01:01:33.276Z,98079.78
2022-12-19T01:03:37.604Z,98075.53
2022-12-19T01:05:40.752Z,98053.41
2022-12-19T01:07:44.773Z,98069.66
2022-12-19T01:09:47.386Z,98091.69
2022-12-19T01:12:08.884Z,98092.63
2022-12-19T01:14:16.089Z,98089.34
2022-12-19T01:16:21.833Z,98088.47
2022-12-19T01:18:24.496Z,98076.63
2022-12-19T01:20:29.687Z,98072.41
2022-12-19T01:22:32.742Z,98079.22
2022-12-19T01:24:35.364Z,98087.81
2022-12-19T01:26:38.011Z,98088.00
2022-12-19T01:28:40.832Z,98079.41
2022-12-19T01:30:43.524Z,98079.25
2022-12-19T01:32:47.144Z,98076.00
2022-12-19T01:34:50.025Z,98064.06
2022-12-19T01:36:53.942Z,98064.06
2022-12-19T01:38:56.660Z,98065.00
2022-12-19T01:40:59.303Z,98059.03
2022-12-19T01:43:04.868Z,98068.38
2022-12-19T01:45:34.447Z,98062.31
2022-12-19T01:47:46.475Z,98062.34
2022-12-19T01:49:51.326Z,98066.66
2022-12-19T01:51:57.876Z,98061.53
2022-12-19T01:54:05.277Z,98052.28
2022-12-19T01:56:10.788Z,98048.88
2022-12-19T01:58:14.866Z,98044.63
2022-12-19T02:00:17.862Z,98039.56
2022-12-19T02:02:26.496Z,98045.59
2022-12-19T02:04:32.286Z,98042.22
2022-12-19T02:06:36.110Z,98048.25
2022-12-19T02:08:42.376Z,98043.19
2022-12-19T02:10:45.086Z,98033.06
2022-12-19T02:12:48.051Z,98026.34
2022-12-19T02:14:50.865Z,98019.56
2022-12-19T02:17:00.400Z,98017.88
2022-12-19T02:19:20.056Z,98026.50
2022-12-19T02:21:34.811Z,98012.09
2022-12-19T02:24:08.477Z,98016.28
2022-12-19T02:26:32.951Z,98006.06
2022-12-19T02:29:04.624Z,98004.34
2022-12-19T02:31:17.727Z,98006.94
2022-12-19T02:33:30.703Z,98006.94
2022-12-19T02:35:41.467Z,98010.41
2022-12-19T02:37:49.510Z,98017.28
2022-12-19T02:39:59.953Z,98016.53
2022-12-19T02:42:06.813Z,98017.50
2022-12-19T02:44:11.206Z,98028.47
2022-12-19T02:46:16.360Z,98020.75
2022-12-19T02:48:19.726Z,98017.41
2022-12-19T02:50:22.415Z,98017.50
2022-12-19T02:52:46.740Z,98014.88
2022-12-19T02:54:51.850Z,98018.38
2022-12-19T02:56:59.972Z,98022.63
2022-12-19T02:59:32.707Z,98008.09
2022-12-19T03:01:45.689Z,98006.44
2022-12-19T03:04:00.901Z,98009.06
2022-12-19T03:06:12.723Z,98014.16
2022-12-19T03:08:20.195Z,98015.84
2022-12-19T03:10:31.878Z,98027.88
2022-12-19T03:12:42.413Z,98030.44
2022-12-19T03:14:46.512Z,98029.63
2022-12-19T03:16:50.788Z,98037.31
2022-12-19T03:19:00.860Z,98033.84
2022-12-19T03:21:09.815Z,98032.16
2022-12-19T03:23:13.311Z,98036.44
2022-12-19T03:25:16.032Z,98035.66
2022-12-19T03:27:25.269Z,98044.22
2022-12-19T03:29:33.661Z,98050.19
2022-12-19T03:31:39.050Z,98046.72
2022-12-19T03:33:44.516Z,98049.38
2022-12-19T03:35:48.693Z,98044.28
2022-12-19T03:37:53.568Z,98053.66
2022-12-19T03:39:59.892Z,98051.97
2022-12-19T03:42:23.691Z,98061.38
2022-12-19T03:44:30.630Z,98054.56
2022-12-19T03:46:36.613Z,98061.38
2022-12-19T03:48:45.495Z,98060.63
2022-12-19T03:50:55.176Z,98069.03
2022-12-19T03:53:05.087Z,98069.22
2022-12-19T03:55:14.786Z,98065.22
2022-12-19T03:57:22.156Z,98062.84
2022-12-19T03:59:34.343Z,98060.13
2022-12-19T04:01:38.692Z,98061.78
2022-12-19T04:03:42.885Z,98058.38
2022-12-19T04:05:47.668Z,98060.91
2022-12-19T04:07:51.988Z,98064.31
2022-12-19T04:09:56.823Z,98067.66
2022-12-19T04:12:03.691Z,98060.00
2022-12-19T04:14:11.625Z,98059.09
2022-12-19T04:16:19.583Z,98065.13
2022-12-19T04:18:23.381Z,98060.91
2022-12-19T04:20:30.889Z,98059.22
2022-12-19T04:22:37.762Z,98059.25
2022-12-19T04:24:43.394Z,98055.88
2022-12-19T04:26:49.863Z,98061.00
2022-12-19T04:28:56.418Z,98051.69
2022-12-19T04:31:00.156Z,98056.03
2022-12-19T04:33:02.785Z,98054.38
2022-12-19T04:35:06.046Z,98054.38
2022-12-19T04:37:10.046Z,98044.97
2022-12-19T04:39:12.719Z,98046.78
2022-12-19T04:41:15.336Z,98048.47
2022-12-19T04:43:17.922Z,98052.78
2022-12-19T04:45:20.516Z,98048.56
2022-12-19T04:47:23.186Z,98048.56
2022-12-19T04:49:25.827Z,98043.50
2022-12-19T04:51:28.493Z,98049.50
2022-12-19T04:53:32.871Z,98048.66
2022-12-19T04:55:35.545Z,98048.69
2022-12-19T04:57:38.206Z,98044.44
2022-12-19T04:59:40.844Z,98049.59
2022-12-19T05:01:43.513Z,98036.81
2022-12-19T05:03:50.018Z,98037.69
2022-12-19T05:06:03.490Z,98036.84
2022-12-19T05:08:06.613Z,98037.75
2022-12-19T05:10:11.228Z,98035.22
2022-12-19T05:12:13.866Z,98030.97
2022-12-19T05:14:16.615Z,98026.75
2022-12-19T05:16:19.881Z,98018.25
2022-12-19T05:18:22.526Z,98018.25
2022-12-19T05:20:25.123Z,98024.25
2022-12-19T05:22:27.734Z,98023.56
2022-12-19T05:24:30.340Z,98019.22
2022-12-19T05:26:34.281Z,98017.53
2022-12-19T05:28:36.918Z,98018.41
2022-12-19T05:30:39.570Z,98011.59
2022-12-19T05:32:42.188Z,98014.16
2022-12-19T05:34:44.797Z,98011.63
2022-12-19T05:36:47.588Z,98013.31
2022-12-19T05:38:50.274Z,98007.31
2022-12-19T05:40:53.100Z,98006.53
2022-12-19T05:42:57.133Z,98003.16
2022-12-19T05:44:59.868Z,98004.91
2022-12-19T05:47:02.452Z,98004.06
2022-12-19T05:49:05.098Z,98005.88
2022-12-19T05:51:08.326Z,98001.72
2022-12-19T05:53:10.930Z,98005.97
2022-12-19T05:55:13.683Z,98002.75
2022-12-19T05:57:16.287Z,98010.47
2022-12-19T05:59:20.262Z,98003.56
2022-12-19T06:01:24.740Z,98007.84
2022-12-19T06:03:27.422Z,98011.28
2022-12-19T06:05:30.060Z,98016.34
2022-12-19T06:07:32.652Z,98007.81
2022-12-19T06:09:35.358Z,98012.88
2022-12-19T06:11:37.952Z,98012.16
2022-12-19T06:13:41.839Z,98009.59
2022-12-19T06:15:47.064Z,98001.91
2022-12-19T06:17:49.751Z,98001.16
2022-12-19T06:19:52.362Z,98002.06
2022-12-19T06:21:54.987Z,98005.44
2022-12-19T06:23:57.719Z,98004.59
2022-12-19T06:26:01.480Z,98002.09
2022-12-19T06:28:04.182Z,98002.91
2022-12-19T06:30:08.026Z,97999.47
2022-12-19T06:32:13.134Z,98009.81
2022-12-19T06:34:39.498Z,98006.34
2022-12-19T06:36:38.872Z,97997.84
2022-12-19T06:38:41.489Z,97994.44
2022-12-19T06:41:02.771Z,97999.56
2022-12-19T06:43:05.353Z,98001.31
2022-12-19T06:45:08.844Z,98005.63
2022-12-19T06:47:12.769Z,98002.19
2022-12-19T06:49:15.370Z,97995.41
2022-12-19T06:51:18.314Z,97997.94
2022-12-19T06:53:20.940Z,98003.97
2022-12-19T06:55:23.739Z,98002.25
2022-12-19T06:57:26.313Z,97996.34
2022-12-19T06:59:28.919Z,97992.09
2022-12-19T07:01:48.009Z,97995.50
2022-12-19T07:03:52.299Z,97995.59
2022-12-19T07:05:54.991Z,98002.44
2022-12-19T07:07:57.597Z,98005.88
2022-12-19T07:10:00.349Z,97997.47
2022-12-19T07:12:03.282Z,97998.28
2022-12-19T07:14:06.246Z,97998.28
2022-12-19T07:16:11.285Z,98004.28
2022-12-19T07:18:14.242Z,98005.41
2022-12-19T07:20:20.110Z,98006.97
2022-12-19T07:22:23.781Z,98010.31
2022-12-19T07:24:26.417Z,98009.47
2022-12-19T07:26:29.066Z,98006.09
2022-12-19T07:28:33.692Z,97994.97
2022-12-19T07:30:36.413Z,98000.97
2022-12-19T07:32:42.019Z,97998.41
2022-12-19T07:34:44.688Z,98001.03
2022-12-19T07:36:48.618Z,98006.16
2022-12-19T07:38:51.246Z,98007.00
2022-12-19T07:40:53.853Z,98007.81
2022-12-19T07:43:00.373Z,98017.31
2022-12-19T07:45:03.108Z,98010.47
2022-12-19T07:47:05.822Z,98007.91
2022-12-19T07:49:08.460Z,98009.69
2022-12-19T07:51:11.130Z,98002.06
2022-12-19T07:53:15.258Z,98004.56
2022-12-19T07:55:18.063Z,98002.84
2022-12-19T07:57:21.053Z,98003.63
2022-12-19T07:59:29.598Z,98004.56
2022-12-19T08:01:34.121Z,98013.94
2022-12-19T08:03:36.949Z,98012.28
2022-12-19T08:05:39.602Z,98014.88
2022-12-19T08:07:42.266Z,98009.81
2022-12-19T08:09:46.340Z,98008.97
2022-12-19T08:11:49.063Z,98011.53
2022-12-19T08:13:51.677Z,98004.84
2022-12-19T08:15:54.511Z,98005.66
2022-12-19T08:17:58.037Z,98009.06
2022-12-19T08:20:00.632Z,98010.78
2022-12-19T08:22:03.285Z,98020.19
2022-12-19T08:24:06.670Z,98023.69
2022-12-19T08:26:14.398Z,98028.81
2022-12-19T08:28:17.054Z,98031.63
2022-12-19T08:30:20.077Z,98019.72
2022-12-19T08:32:22.737Z,98029.28
2022-12-19T08:34:25.348Z,98030.91
2022-12-19T08:36:27.948Z,98038.66
2022-12-19T08:38:30.681Z,98040.50
2022-12-19T08:40:33.746Z,98038.69
2022-12-19T08:42:38.090Z,98043.06
2022-12-19T08:44:40.765Z,98038.81
2022-12-19T08:46:49.537Z,98044.00
2022-12-19T08:48:52.755Z,98042.28
2022-12-19T08:50:57.703Z,98044.91
2022-12-19T08:53:00.311Z,98043.09
2022-12-19T08:55:03.067Z,98044.81
2022-12-19T08:57:05.629Z,98047.41
2022-12-19T08:59:09.548Z,98049.22
2022-12-19T09:01:19.194Z,98046.75
2022-12-19T09:03:23.756Z,98039.09
2022-12-19T09:05:59.259Z,98049.44
2022-12-19T09:07:50.836Z,98042.53
2022-12-19T09:09:54.113Z,98039.03
2022-12-19T09:11:56.777Z,98033.13
2022-12-19T09:13:59.683Z,98037.41
2022-12-19T09:16:06.298Z,98037.41
2022-12-19T09:18:08.936Z,98038.28
2022-12-19T09:20:14.825Z,98030.59
2022-12-19T09:22:19.453Z,98031.53
2022-12-19T09:24:22.070Z,98023.81
2022-12-19T09:26:26.534Z,98020.47
2022-12-19T09:28:31.580Z,98018.78
2022-12-19T09:30:34.528Z,98019.63
2022-12-19T09:32:39.627Z,98012.78
2022-12-19T09:34:42.234Z,98019.59
2022-12-19T09:36:44.854Z,98013.56
2022-12-19T09:38:48.131Z,98008.44
2022-12-19T09:41:07.238Z,98005.06
2022-12-19T09:43:15.055Z,98007.66
2022-12-19T09:45:40.916Z,98005.09
2022-12-19T09:47:48.940Z,98005.13
2022-12-19T09:49:54.015Z,98000.91
2022-12-19T09:52:01.605Z,97993.22
2022-12-19T09:54:13.538Z,97989.84
2022-12-19T09:56:18.111Z,97992.47
2022-12-19T09:58:34.822Z,97989.88
2022-12-19T10:00:41.892Z,98001.91
2022-12-19T10:02:51.668Z,97996.78
2022-12-19T10:05:17.488Z,97988.28
2022-12-19T10:08:01.454Z,97992.53
2022-12-19T10:11:45.777Z,97989.13
2022-12-19T10:12:44.973Z,97990.88
2022-12-19T10:15:02.426Z,97984.88
2022-12-19T10:17:25.360Z,97991.75
2022-12-19T10:19:39.149Z,97985.81
2022-12-19T10:22:16.879Z,97980.72
2022-12-19T10:24:34.802Z,97981.53
2022-12-19T10:26:43.939Z,97972.97
2022-12-19T10:29:02.421Z,97972.97
2022-12-19T10:31:21.346Z,97974.72
2022-12-19T10:33:33.432Z,97972.16
2022-12-19T10:35:42.575Z,97968.81
2022-12-19T10:37:51.304Z,97968.88
2022-12-19T10:40:11.635Z,97958.69
2022-12-19T10:42:30.030Z,97964.69
2022-12-19T10:44:36.604Z,97962.22
2022-12-19T10:46:41.522Z,97959.59
2022-12-19T10:48:44.132Z,97959.59
2022-12-19T10:50:48.272Z,97963.19
2022-12-19T10:52:54.461Z,97955.44
2022-12-19T10:54:57.765Z,97965.75
2022-12-19T10:57:19.202Z,97971.78
2022-12-19T10:59:22.635Z,97959.78
2022-12-19T11:01:28.307Z,97958.91
2022-12-19T11:03:32.228Z,97948.66
2022-12-19T11:05:44.498Z,97949.53
2022-12-19T11:08:02.983Z,97946.09
2022-12-19T11:12:25.311Z,97935.00
2022-12-19T11:16:36.662Z,97932.50
2022-12-19T11:21:16.187Z,97927.38
2022-12-19T11:29:16.607Z,97929.19
2022-12-19T11:29:42.534Z,97912.97
2022-12-19T11:29:45.132Z,97919.75
2022-12-19T11:30:26.152Z,97900.13
2022-12-19T11:30:43.746Z,97907.00
2022-12-19T11:32:41.066Z,97892.41
2022-12-19T11:34:50.675Z,97890.69
2022-12-19T11:36:57.969Z,97896.69
2022-12-19T11:39:01.321Z,97897.56
2022-12-19T11:41:12.751Z,97899.34
2022-12-19T11:45:52.477Z,97892.53
2022-12-19T11:48:00.042Z,97880.59
2022-12-19T11:50:11.827Z,97878.03
2022-12-19T11:52:54.074Z,97866.84
2022-12-19T11:54:49.310Z,97862.56
2022-12-19T11:56:53.251Z,97858.28
2022-12-19T11:59:01.030Z,97860.88
2022-12-19T12:01:13.630Z,97860.88
2022-12-19T12:03:34.855Z,97856.59
2022-12-19T12:05:43.964Z,97861.69
2022-12-19T12:09:48.750Z,97866.84
2022-12-19T12:15:37.939Z,97875.44
2022-12-19T12:20:54.216Z,97880.59
2022-12-19T12:29:48.796Z,97887.47
2022-12-19T12:31:01.919Z,97884.94
2022-12-19T12:31:18.580Z,97884.09
2022-12-19T12:31:38.888Z,97886.66
2022-12-19T12:31:47.568Z,97887.56
2022-12-19T12:31:52.923Z,97883.28
2022-12-19T12:35:29.219Z,97878.16
2022-12-19T12:39:15.991Z,97867.03
2022-12-19T12:41:48.009Z,97865.28
2022-12-19T12:44:07.503Z,97862.72
2022-12-19T12:46:17.226Z,97855.03
2022-12-19T12:48:26.090Z,97848.16
2022-12-19T12:50:31.373Z,97843.00
2022-12-19T12:52:38.141Z,97834.41
2022-12-19T12:54:43.822Z,97835.28
2022-12-19T12:56:48.516Z,97837.81
2022-12-19T12:59:23.956Z,97835.25
2022-12-19T13:01:35.500Z,97822.38
2022-12-19T13:03:38.656Z,97833.53
2022-12-19T13:05:54.019Z,97832.66
2022-12-19T13:07:56.772Z,97829.25
2022-12-19T13:10:19.668Z,97832.69
2022-12-19T13:12:44.604Z,97825.84
2022-12-19T13:14:49.706Z,97819.81
2022-12-19T13:16:55.395Z,97822.38
2022-12-19T13:19:05.303Z,97833.53
2022-12-19T13:21:10.603Z,97837.00
2022-12-19T13:23:33.293Z,97840.41
2022-12-19T13:25:51.181Z,97848.13
2022-12-19T13:27:58.367Z,97847.25
2022-12-19T13:30:20.387Z,97849.84
2022-12-19T13:32:24.908Z,97846.41
2022-12-19T13:34:36.688Z,97842.97
2022-12-19T13:39:50.571Z,97848.13
2022-12-19T13:39:59.625Z,97843.00
2022-12-19T13:42:20.910Z,97849.88
2022-12-19T13:44:23.709Z,97845.59
2022-12-19T13:46:37.877Z,97842.13
2022-12-19T13:48:46.800Z,97840.44
2022-12-19T13:50:50.075Z,97840.44
2022-12-19T13:52:53.679Z,97843.84
2022-12-19T13:54:59.292Z,97836.97
2022-12-19T13:57:08.960Z,97843.88
2022-12-19T13:59:12.555Z,97837.00
2022-12-19T14:01:22.358Z,97841.28
2022-12-19T14:03:35.096Z,97831.84
2022-12-19T14:06:17.423Z,97836.13
2022-12-19T14:08:05.928Z,97836.13
2022-12-19T14:11:32.101Z,97843.84
2022-12-19T14:13:54.122Z,97839.56
2022-12-19T14:15:28.640Z,97851.56
2022-12-19T14:17:31.242Z,97854.16
2022-12-19T14:19:39.799Z,97858.44
2022-12-19T14:22:03.939Z,97854.13
2022-12-19T14:24:11.051Z,97854.97
2022-12-19T14:28:22.352Z,97859.25
2022-12-19T14:28:54.741Z,97867.00
2022-12-19T14:31:01.431Z,97865.28
2022-12-19T14:33:45.140Z,97872.97
2022-12-19T14:36:12.268Z,97858.38
2022-12-19T14:39:24.576Z,97856.69
2022-12-19T14:40:28.501Z,97871.28
2022-12-19T14:43:56.815Z,97873.00
2022-12-19T14:54:02.600Z,97866.13
2022-12-19T14:54:04.474Z,97862.72
2022-12-19T14:54:15.112Z,97862.69
2022-12-19T14:54:34.135Z,97867.81
2022-12-19T14:56:15.900Z,97870.41
2022-12-19T14:58:54.154Z,97861.81
2022-12-19T15:01:07.489Z,97866.94
2022-12-19T15:02:52.150Z,97861.78
2022-12-19T15:05:03.171Z,97866.94
2022-12-19T15:07:12.243Z,97866.94
2022-12-19T15:10:57.866Z,97856.59
2022-12-19T15:14:37.439Z,97856.66
2022-12-19T15:14:56.345Z,97860.09
2022-12-19T15:16:49.297Z,97847.22
2022-12-19T15:18:54.408Z,97850.63
2022-12-19T15:20:59.093Z,97842.91
2022-12-19T15:23:01.797Z,97847.19
2022-12-19T15:25:06.597Z,97833.44
2022-12-19T15:27:12.813Z,97835.13
2022-12-19T15:29:21.641Z,97836.84
2022-12-19T15:31:34.555Z,97836.84
2022-12-19T15:33:48.023Z,97833.41
2022-12-19T15:36:00.117Z,97835.97
2022-12-19T15:38:02.685Z,97834.25
2022-12-19T15:40:08.612Z,97823.94
2022-12-19T15:42:21.487Z,97814.50
2022-12-19T15:44:31.310Z,97817.94
2022-12-19T15:46:34.414Z,97825.66
2022-12-19T15:48:40.364Z,97816.22
2022-12-19T15:50:43.894Z,97817.06
2022-12-19T15:52:46.633Z,97818.75
2022-12-19T15:54:50.790Z,97814.47
2022-12-19T15:56:57.289Z,97812.75
2022-12-19T15:59:01.991Z,97824.78
2022-12-19T16:01:05.504Z,97831.63
2022-12-19T16:03:23.607Z,97828.19
2022-12-19T16:05:29.289Z,97831.63
2022-12-19T16:07:32.209Z,97829.91
2022-12-19T16:09:34.909Z,97835.91
2022-12-19T16:11:38.855Z,97830.75
2022-12-19T16:13:46.314Z,97831.63
2022-12-19T16:15:52.859Z,97833.38
2022-12-19T16:17:56.083Z,97835.06
2022-12-19T16:19:59.379Z,97838.47
2022-12-19T16:22:02.807Z,97829.91
2022-12-19T16:24:08.187Z,97823.03
2022-12-19T16:26:26.485Z,97826.47
2022-12-19T16:28:32.117Z,97817.88
2022-12-19T16:30:36.527Z,97820.44
2022-12-19T16:32:39.209Z,97817.00
2022-12-19T16:34:41.845Z,97811.84
2022-12-19T16:36:44.984Z,97804.13
2022-12-19T16:38:48.269Z,97804.97
2022-12-19T16:40:52.749Z,97805.81
2022-12-19T16:43:04.574Z,97804.06
2022-12-19T16:45:07.418Z,97818.66
2022-12-19T16:47:14.167Z,97816.94
2022-12-19T16:49:19.166Z,97812.66
2022-12-19T16:51:24.120Z,97816.94
2022-12-19T16:53:26.950Z,97817.81
2022-12-19T16:55:29.537Z,97811.84
2022-12-19T16:57:32.269Z,97810.97
2022-12-19T16:59:38.289Z,97810.16
2022-12-19T17:01:41.105Z,97803.31
2022-12-19T17:03:46.260Z,97804.19
2022-12-19T17:05:48.850Z,97807.59
2022-12-19T17:07:52.354Z,97795.63
2022-12-19T17:09:55.014Z,97787.09
2022-12-19T17:12:00.427Z,97782.81
2022-12-19T17:14:08.346Z,97797.38
2022-12-19T17:16:11.099Z,97792.22
2022-12-19T17:18:16.933Z,97794.81
2022-12-19T17:20:23.501Z,97789.66
2022-12-19T17:22:26.131Z,97793.09
2022-12-19T17:24:28.815Z,97780.19
2022-12-19T17:26:31.470Z,97783.63
2022-12-19T17:28:34.128Z,97789.66
2022-12-19T17:30:37.768Z,97793.94
2022-12-19T17:32:40.563Z,97786.22
2022-12-19T17:34:44.823Z,97788.78
2022-12-19T17:36:48.893Z,97787.94
2022-12-19T17:38:53.947Z,97793.94
2022-12-19T17:40:56.566Z,97803.41
2022-12-19T17:42:59.968Z,97803.38
2022-12-19T17:45:02.562Z,97809.38
2022-12-19T17:47:05.540Z,97806.81
2022-12-19T17:49:16.852Z,97814.50
2022-12-19T17:51:21.217Z,97816.22
2022-12-19T17:53:25.400Z,97817.94
2022-12-19T17:55:30.003Z,97810.22
2022-12-19T17:57:32.607Z,97821.38
2022-12-19T17:59:35.180Z,97822.22
2022-12-19T18:01:41.574Z,97827.34
2022-12-19T18:03:44.732Z,97815.34
2022-12-19T18:05:47.899Z,97822.25
2022-12-19T18:07:50.722Z,97833.41
2022-12-19T18:09:54.654Z,97819.69
2022-12-19T18:11:57.279Z,97817.94
2022-12-19T18:13:59.940Z,97813.66
2022-12-19T18:16:04.939Z,97817.94
2022-12-19T18:18:13.482Z,97824.78
2022-12-19T18:20:30.930Z,97813.63
2022-12-19T18:22:37.248Z,97822.19
2022-12-19T18:24:41.026Z,97825.66
2022-12-19T18:26:45.619Z,97831.63
2022-12-19T18:28:48.422Z,97824.78
2022-12-19T18:30:52.412Z,97825.59
2022-12-19T18:32:58.587Z,97835.06
2022-12-19T18:35:01.248Z,97837.59
2022-12-19T18:37:06.711Z,97842.75
2022-12-19T18:39:19.981Z,97832.44
2022-12-19T18:41:23.521Z,97828.19
2022-12-19T18:43:27.491Z,97833.31
2022-12-19T18:45:36.211Z,97833.31
2022-12-19T18:47:39.376Z,97834.19
2022-12-19T18:49:42.007Z,97830.78
2022-12-19T18:51:45.932Z,97834.25
2022-12-19T18:53:51.002Z,97832.59
2022-12-19T18:55:53.675Z,97836.09
2022-12-19T18:57:56.948Z,97821.47
2022-12-19T19:00:00.883Z,97818.88
2022-12-19T19:02:04.947Z,97817.97
2022-12-19T19:04:08.881Z,97822.28
2022-12-19T19:06:19.433Z,97819.72
2022-12-19T19:08:27.079Z,97824.84
2022-12-19T19:10:31.594Z,97821.41
2022-12-19T19:12:34.224Z,97823.13
2022-12-19T19:14:36.843Z,97817.09
2022-12-19T19:16:40.956Z,97816.22
2022-12-19T19:18:44.699Z,97814.53
2022-12-19T19:20:48.640Z,97804.19
2022-12-19T19:22:52.095Z,97801.63
2022-12-19T19:24:54.763Z,97799.03
2022-12-19T19:26:57.358Z,97797.34
2022-12-19T19:29:00.005Z,97790.50
2022-12-19T19:31:02.769Z,97792.19
2022-12-19T19:33:10.533Z,97804.22
2022-12-19T19:35:17.014Z,97801.66
2022-12-19T19:37:19.793Z,97802.53
2022-12-19T19:39:23.270Z,97804.22
2022-12-19T19:41:29.789Z,97798.25
2022-12-19T19:43:33.996Z,97800.78
2022-12-19T19:45:42.779Z,97808.50
2022-12-19T19:47:45.937Z,97803.34
2022-12-19T19:49:49.877Z,97798.22
2022-12-19T19:51:57.024Z,97787.03
2022-12-19T19:54:07.166Z,97793.91
2022-12-19T19:56:10.837Z,97780.97
2022-12-19T19:58:13.469Z,97781.84
2022-12-19T20:00:16.780Z,97787.00
2022-12-19T20:02:19.862Z,97783.56
2022-12-19T20:04:22.774Z,97787.81
2022-12-19T20:06:27.090Z,97780.09
2022-12-19T20:08:38.613Z,97786.94
2022-12-19T20:10:42.010Z,97780.94
2022-12-19T20:12:44.647Z,97785.25
2022-12-19T20:14:48.092Z,97778.41
2022-12-19T20:16:51.021Z,97787.81
2022-12-19T20:18:53.825Z,97792.09
2022-12-19T20:20:56.432Z,97790.38
2022-12-19T20:23:00.375Z,97792.09
2022-12-19T20:25:03.053Z,97798.97
2022-12-19T20:27:05.661Z,97801.56
2022-12-19T20:29:08.255Z,97810.16
2022-12-19T20:31:10.994Z,97817.09
2022-12-19T20:33:13.650Z,97809.34
2022-12-19T20:35:16.442Z,97809.34
2022-12-19T20:37:19.067Z,97805.94
2022-12-19T20:39:23.027Z,97805.88
2022-12-19T20:41:25.585Z,97812.75
2022-12-19T20:43:28.206Z,97807.63
2022-12-19T20:45:30.939Z,97811.03
2022-12-19T20:47:33.565Z,97803.31
2022-12-19T20:49:36.149Z,97810.16
2022-12-19T20:51:39.306Z,97811.03
2022-12-19T20:53:42.793Z,97811.03
2022-12-19T20:55:57.795Z,97806.75
2022-12-19T20:58:01.207Z,97806.72
2022-12-19T21:00:04.980Z,97809.34
2022-12-19T21:02:07.891Z,97808.47
2022-12-19T21:04:10.920Z,97812.78
2022-12-19T21:06:15.174Z,97804.19
2022-12-19T21:08:17.750Z,97805.84
2022-12-19T21:10:20.710Z,97810.22
2022-12-19T21:12:24.728Z,97817.06
2022-12-19T21:14:27.351Z,97810.22
2022-12-19T21:16:30.152Z,97810.25
2022-12-19T21:18:32.779Z,97811.09
2022-12-19T21:20:35.997Z,97806.81
2022-12-19T21:22:38.920Z,97809.38
2022-12-19T21:24:41.588Z,97810.22
2022-12-19T21:26:45.201Z,97814.47
2022-12-19T21:28:50.125Z,97811.06
2022-12-19T21:30:56.972Z,97815.34
2022-12-19T21:32:59.606Z,97816.22
2022-12-19T21:35:02.254Z,97813.66
2022-12-19T21:37:04.889Z,97811.09
2022-12-19T21:39:07.759Z,97810.25
2022-12-19T21:41:11.442Z,97807.63
2022-12-19T21:43:14.356Z,97807.63
2022-12-19T21:45:18.885Z,97797.34
2022-12-19T21:47:21.543Z,97805.06
2022-12-19T21:49:24.150Z,97802.50
2022-12-19T21:51:29.926Z,97796.50
2022-12-19T21:53:32.920Z,97799.88
2022-12-19T21:55:35.805Z,97794.75
2022-12-19T21:57:39.667Z,97799.88
2022-12-19T21:59:42.329Z,97810.19
2022-12-19T22:01:46.819Z,97805.06
2022-12-19T22:03:50.266Z,97807.59
2022-12-19T22:05:52.986Z,97810.16
2022-12-19T22:07:55.591Z,97801.59
2022-12-19T22:09:58.170Z,97804.13
2022-12-19T22:12:00.774Z,97804.16
2022-12-19T22:14:05.018Z,97800.72
2022-12-19T22:16:08.392Z,97811.88
2022-12-19T22:18:12.403Z,97803.31
2022-12-19T22:20:15.393Z,97808.47
2022-12-19T22:22:18.019Z,97808.47
2022-12-19T22:24:20.636Z,97811.03
2022-12-19T22:26:24.170Z,97811.91
2022-12-19T22:28:26.783Z,97809.28
2022-12-19T22:30:29.422Z,97809.34
2022-12-19T22:32:32.011Z,97805.94
2022-12-19T22:34:35.952Z,97803.34
2022-12-19T22:36:40.762Z,97805.00
2022-12-19T22:38:44.169Z,97810.16
2022-12-19T22:40:46.782Z,97808.47
2022-12-19T22:42:49.435Z,97811.91
2022-12-19T22:44:53.372Z,97807.59
2022-12-19T22:46:55.988Z,97814.47
2022-12-19T22:49:00.874Z,97806.75
2022-12-19T22:51:05.215Z,97799.88
2022-12-19T22:53:12.618Z,97802.50
2022-12-19T22:55:15.708Z,97798.22
2022-12-19T22:57:18.338Z,97785.31
2022-12-19T22:59:21.318Z,97786.16
2022-12-19T23:01:25.846Z,97783.59
2022-12-19T23:03:28.679Z,97793.06
2022-12-19T23:05:31.418Z,97796.47
2022-12-19T23:07:35.709Z,97787.03
2022-12-19T23:09:39.601Z,97785.31
2022-12-19T23:11:44.159Z,97796.47
2022-12-19T23:13:48.622Z,97788.75
2022-12-19T23:15:51.258Z,97785.25
2022-12-19T23:17:53.833Z,97785.28
2022-12-19T23:19:56.411Z,97789.56
2022-12-19T23:21:59.065Z,97785.28
2022-12-19T23:24:03.211Z,97781.00
2022-12-19T23:26:07.262Z,97777.56
2022-12-19T23:28:13.842Z,97771.56
2022-12-19T23:30:16.535Z,97775.00
2022-12-19T23:32:22.163Z,97772.44
2022-12-19T23:34:24.821Z,97787.00
2022-12-19T23:38:53.963Z,97787.88
2022-12-19T23:41:01.709Z,97791.31
2022-12-19T23:43:04.430Z,97788.75
2022-12-19T23:45:08.458Z,97779.31
2022-12-19T23:47:11.029Z,97789.63
2022-12-19T23:49:13.675Z,97779.31
2022-12-19T23:51:18.321Z,97786.16
2022-12-19T23:53:20.902Z,97782.75
2022-12-19T23:55:23.518Z,97782.72
2022-12-19T23:57:27.469Z,97781.91
2022-12-19T23:59:30.979Z,97780.22
